createdAt,value
2019-02-17T00:00:44.939Z,29.83
2019-02-17T00:03:13.408Z,26.90
2019-02-17T00:05:44.714Z,24.13
2019-02-17T00:08:13.331Z,24.80
2019-02-17T00:10:41.874Z,23.07
2019-02-17T00:13:10.459Z,25.87
2019-02-17T00:15:38.912Z,23.97
2019-02-17T00:18:07.380Z,22.30
2019-02-17T00:20:35.917Z,23.60
2019-02-17T00:23:04.498Z,22.33
2019-02-17T00:25:33.019Z,24.47
2019-02-17T00:28:01.608Z,23.17
2019-02-17T00:30:30.169Z,23.27
2019-02-17T00:32:58.630Z,21.83
2019-02-17T00:35:27.512Z,21.40
2019-02-17T00:37:56.124Z,24.47
2019-02-17T00:40:24.675Z,21.87
2019-02-17T00:42:53.156Z,22.27
2019-02-17T00:45:21.642Z,20.73
2019-02-17T00:47:50.928Z,21.67
2019-02-17T00:50:19.488Z,21.80
2019-02-17T00:52:48.256Z,20.87
2019-02-17T00:55:16.817Z,22.00
2019-02-17T00:57:45.332Z,22.40
2019-02-17T01:00:13.899Z,22.63
2019-02-17T01:02:42.468Z,21.93
2019-02-17T01:05:11.064Z,22.43
2019-02-17T01:07:40.060Z,24.17
2019-02-17T01:10:09.401Z,21.43
2019-02-17T01:12:37.952Z,23.07
2019-02-17T01:15:11.715Z,21.27
2019-02-17T01:17:40.545Z,21.87
2019-02-17T01:20:10.320Z,21.93
2019-02-17T01:22:38.904Z,22.63
2019-02-17T01:25:09.217Z,20.37
2019-02-17T01:27:37.673Z,22.70
2019-02-17T01:30:14.312Z,20.83
2019-02-17T01:32:42.878Z,22.90
2019-02-17T01:35:11.422Z,22.53
2019-02-17T01:37:40.036Z,21.37
2019-02-17T01:40:09.778Z,21.67
2019-02-17T01:42:38.240Z,22.73
2019-02-17T01:45:09.105Z,22.50
2019-02-17T01:47:37.633Z,20.13
2019-02-17T01:50:09.867Z,23.90
2019-02-17T01:52:38.415Z,20.17
2019-02-17T01:55:08.544Z,22.27
2019-02-17T01:57:38.593Z,19.43
2019-02-17T02:00:13.352Z,22.93
2019-02-17T02:02:42.067Z,19.73
2019-02-17T02:05:10.854Z,20.97
2019-02-17T02:07:39.381Z,22.30
2019-02-17T02:10:09.899Z,21.03
2019-02-17T02:12:38.413Z,21.33
2019-02-17T02:15:12.801Z,23.40
2019-02-17T02:17:41.282Z,22.20
2019-02-17T02:20:11.925Z,21.30
2019-02-17T02:22:40.944Z,20.23
2019-02-17T02:25:09.869Z,21.27
2019-02-17T02:27:38.371Z,24.83
2019-02-17T02:30:10.374Z,19.77
2019-02-17T02:32:39.284Z,20.73
2019-02-17T02:35:08.164Z,19.90
2019-02-17T02:37:36.648Z,22.93
2019-02-17T02:40:06.204Z,20.50
2019-02-17T02:42:34.785Z,23.37
2019-02-17T02:45:04.073Z,20.50
2019-02-17T02:47:32.639Z,21.90
2019-02-17T02:50:01.220Z,22.23
2019-02-17T02:52:29.837Z,21.70
2019-02-17T02:54:58.438Z,22.07
2019-02-17T02:57:26.908Z,21.43
2019-02-17T02:59:55.479Z,21.23
2019-02-17T03:02:24.008Z,24.23
2019-02-17T03:04:52.576Z,21.57
2019-02-17T03:07:21.284Z,23.33
2019-02-17T03:09:49.825Z,24.37
2019-02-17T03:12:18.307Z,21.33
2019-02-17T03:14:46.925Z,24.43
2019-02-17T03:17:15.424Z,22.20
2019-02-17T03:19:44.041Z,20.80
2019-02-17T03:22:12.519Z,22.33
2019-02-17T03:24:40.980Z,22.83
2019-02-17T03:27:09.468Z,24.03
2019-02-17T03:29:38.060Z,23.13
2019-02-17T03:32:06.527Z,22.77
2019-02-17T03:34:35.004Z,24.83
2019-02-17T03:37:03.726Z,23.10
2019-02-17T03:39:32.268Z,22.70
2019-02-17T03:42:00.736Z,24.57
2019-02-17T03:44:29.367Z,25.63
2019-02-17T03:46:57.825Z,21.53
2019-02-17T03:49:26.321Z,24.07
2019-02-17T03:51:54.817Z,21.23
2019-02-17T03:54:23.289Z,22.33
2019-02-17T03:56:51.810Z,23.80
2019-02-17T03:59:20.313Z,22.13
2019-02-17T04:01:48.855Z,21.60
2019-02-17T04:04:17.472Z,24.57
2019-02-17T04:06:45.972Z,24.13
2019-02-17T04:09:14.470Z,28.23
2019-02-17T04:11:42.987Z,26.07
2019-02-17T04:14:11.562Z,26.10
2019-02-17T04:16:40.021Z,26.10
2019-02-17T04:19:08.524Z,24.20
2019-02-17T04:21:36.999Z,23.67
2019-02-17T04:24:05.568Z,27.90
2019-02-17T04:26:34.315Z,26.63
2019-02-17T04:29:02.854Z,25.03
2019-02-17T04:31:31.332Z,25.80
2019-02-17T04:33:59.886Z,24.67
2019-02-17T04:36:28.493Z,26.50
2019-02-17T04:38:56.949Z,26.57
2019-02-17T04:41:25.500Z,24.00
2019-02-17T04:43:54.148Z,24.90
2019-02-17T04:46:22.633Z,25.73
2019-02-17T04:48:51.123Z,23.77
2019-02-17T04:51:19.968Z,24.10
2019-02-17T04:53:48.521Z,22.17
2019-02-17T04:56:17.040Z,23.17
2019-02-17T04:58:45.660Z,24.33
2019-02-17T05:01:14.108Z,25.67
2019-02-17T05:03:42.599Z,25.37
2019-02-17T05:06:11.072Z,23.97
2019-02-17T05:08:39.549Z,22.93
2019-02-17T05:11:08.176Z,24.13
2019-02-17T05:13:36.644Z,24.03
2019-02-17T05:16:05.113Z,23.33
2019-02-17T05:18:33.638Z,25.03
2019-02-17T05:21:02.183Z,23.80
2019-02-17T05:23:30.669Z,24.70
2019-02-17T05:25:59.221Z,23.43
2019-02-17T05:28:27.805Z,28.03
2019-02-17T05:30:56.344Z,23.63
2019-02-17T05:33:24.967Z,23.20
2019-02-17T05:35:53.489Z,22.63
2019-02-17T05:38:22.098Z,22.50
2019-02-17T05:40:50.608Z,23.90
2019-02-17T05:43:19.134Z,23.47
2019-02-17T05:45:47.657Z,23.10
2019-02-17T05:48:16.548Z,23.87
2019-02-17T05:50:45.015Z,22.43
2019-02-17T05:53:13.467Z,22.83
2019-02-17T05:55:42.142Z,23.90
2019-02-17T05:58:10.588Z,27.03
2019-02-17T06:00:39.975Z,25.60
2019-02-17T06:03:08.464Z,22.93
2019-02-17T06:05:36.926Z,23.37
2019-02-17T06:08:05.401Z,23.70
2019-02-17T06:10:33.913Z,22.27
2019-02-17T06:13:02.394Z,23.50
2019-02-17T06:15:30.932Z,24.53
2019-02-17T06:17:59.419Z,24.03
2019-02-17T06:20:27.929Z,24.57
2019-02-17T06:22:56.413Z,27.80
2019-02-17T06:25:24.938Z,28.90
2019-02-17T06:27:55.040Z,24.60
2019-02-17T06:30:23.534Z,25.87
2019-02-17T06:32:51.998Z,25.73
2019-02-17T06:35:20.457Z,27.47
2019-02-17T06:37:48.960Z,25.93
2019-02-17T06:40:17.437Z,25.60
2019-02-17T06:42:45.998Z,25.07
2019-02-17T06:45:14.528Z,26.97
2019-02-17T06:47:42.987Z,25.33
2019-02-17T06:50:11.440Z,26.57
2019-02-17T06:52:39.991Z,29.37
2019-02-17T06:55:13.192Z,25.83
2019-02-17T06:57:42.423Z,27.80
2019-02-17T07:00:12.906Z,25.70
2019-02-17T07:02:41.364Z,25.27
2019-02-17T07:05:23.596Z,25.23
2019-02-17T07:07:52.147Z,23.80
2019-02-17T07:10:20.700Z,23.17
2019-02-17T07:12:49.251Z,25.73
2019-02-17T07:15:17.725Z,27.73
2019-02-17T07:17:47.071Z,25.48
2019-02-17T07:20:15.613Z,28.47
2019-02-17T07:22:44.132Z,26.17
2019-02-17T07:25:12.739Z,24.90
2019-02-17T07:27:41.225Z,24.57
2019-02-17T07:30:09.770Z,23.17
2019-02-17T07:32:38.224Z,27.10
2019-02-17T07:35:07.352Z,28.83
2019-02-17T07:37:35.841Z,27.50
2019-02-17T07:40:05.524Z,28.50
2019-02-17T07:42:34.247Z,25.80
2019-02-17T07:45:02.805Z,27.50
2019-02-17T07:47:31.272Z,29.77
2019-02-17T07:49:59.772Z,27.73
2019-02-17T07:52:28.233Z,27.17
2019-02-17T07:54:56.704Z,25.50
2019-02-17T07:57:25.275Z,28.30
2019-02-17T07:59:53.831Z,24.87
2019-02-17T08:02:22.378Z,27.83
2019-02-17T08:04:50.917Z,25.33
2019-02-17T08:07:19.395Z,26.90
2019-02-17T08:09:47.868Z,31.20
2019-02-17T08:12:16.383Z,28.47
2019-02-17T08:14:44.835Z,28.80
2019-02-17T08:17:13.310Z,28.13
2019-02-17T08:19:41.898Z,28.93
2019-02-17T08:22:10.419Z,29.27
2019-02-17T08:24:38.871Z,28.60
2019-02-17T08:27:07.433Z,28.97
2019-02-17T08:29:35.910Z,27.97
2019-02-17T08:32:07.303Z,28.57
2019-02-17T08:34:35.776Z,30.87
2019-02-17T08:37:04.250Z,28.63
2019-02-17T08:39:32.796Z,28.03
2019-02-17T08:42:01.291Z,26.90
2019-02-17T08:44:30.000Z,27.23
2019-02-17T08:46:58.482Z,26.20
2019-02-17T08:49:26.967Z,28.37
2019-02-17T08:51:55.504Z,28.60
2019-02-17T08:54:24.051Z,30.77
2019-02-17T08:56:52.543Z,24.00
2019-02-17T08:59:21.074Z,27.73
2019-02-17T09:01:49.541Z,26.77
2019-02-17T09:04:18.180Z,28.40
2019-02-17T09:06:46.736Z,26.83
2019-02-17T09:09:15.261Z,27.50
2019-02-17T09:11:43.829Z,29.50
2019-02-17T09:14:12.310Z,28.77
2019-02-17T09:16:40.855Z,26.40
2019-02-17T09:19:09.426Z,26.03
2019-02-17T09:21:37.908Z,32.13
2019-02-17T09:24:06.758Z,30.37
2019-02-17T09:26:35.333Z,27.50
2019-02-17T09:29:04.176Z,26.23
2019-02-17T09:31:32.649Z,30.03
2019-02-17T09:34:01.188Z,27.03
2019-02-17T09:36:29.756Z,29.00
2019-02-17T09:38:58.273Z,25.50
2019-02-17T09:41:26.749Z,26.63
2019-02-17T09:43:55.216Z,25.87
2019-02-17T09:46:23.907Z,26.70
2019-02-17T09:48:52.399Z,27.73
2019-02-17T09:51:20.934Z,27.10
2019-02-17T09:53:49.417Z,28.80
2019-02-17T09:56:17.900Z,26.13
2019-02-17T09:58:46.376Z,27.27
2019-02-17T10:01:14.986Z,24.93
2019-02-17T10:03:43.448Z,27.63
2019-02-17T10:06:11.988Z,28.00
2019-02-17T10:08:40.507Z,25.90
2019-02-17T10:11:09.994Z,26.80
2019-02-17T10:13:38.484Z,26.13
2019-02-17T10:16:07.188Z,24.47
2019-02-17T10:18:35.951Z,27.47
2019-02-17T10:21:04.485Z,27.60
2019-02-17T10:23:32.974Z,24.13
2019-02-17T10:26:01.448Z,26.53
2019-02-17T10:28:29.921Z,27.30
2019-02-17T10:31:00.076Z,26.77
2019-02-17T10:33:28.668Z,23.70
2019-02-17T10:35:57.186Z,25.47
2019-02-17T10:38:25.693Z,27.93
2019-02-17T10:40:54.232Z,31.17
2019-02-17T10:43:22.708Z,29.43
2019-02-17T10:45:51.195Z,26.17
2019-02-17T10:48:19.780Z,24.73
2019-02-17T10:50:48.284Z,26.93
2019-02-17T10:53:16.772Z,26.60
2019-02-17T10:55:45.252Z,29.73
2019-02-17T10:58:13.733Z,27.87
2019-02-17T11:00:42.324Z,25.67
2019-02-17T11:03:10.864Z,29.53
2019-02-17T11:05:39.336Z,26.67
2019-02-17T11:08:07.886Z,25.73
2019-02-17T11:10:36.347Z,26.90
2019-02-17T11:13:04.934Z,25.70
2019-02-17T11:15:33.545Z,27.20
2019-02-17T11:18:02.092Z,27.63
2019-02-17T11:20:30.641Z,27.03
2019-02-17T11:22:59.143Z,25.83
2019-02-17T11:25:27.621Z,24.90
2019-02-17T11:27:56.084Z,26.27
2019-02-17T11:30:24.580Z,29.07
2019-02-17T11:32:58.026Z,26.77
2019-02-17T11:35:23.442Z,26.70
2019-02-17T11:37:51.994Z,27.60
2019-02-17T11:40:20.466Z,23.13
2019-02-17T11:42:48.939Z,25.37
2019-02-17T11:45:18.938Z,25.57
2019-02-17T11:47:47.495Z,20.63
2019-02-17T11:50:16.061Z,23.77
2019-02-17T11:52:44.601Z,24.90
2019-02-17T11:55:15.123Z,22.57
2019-02-17T11:57:43.739Z,22.10
2019-02-17T12:00:17.719Z,24.97
2019-02-17T12:02:46.364Z,21.33
2019-02-17T12:05:14.851Z,22.60
2019-02-17T12:07:43.575Z,21.40
2019-02-17T12:10:12.394Z,21.20
2019-02-17T12:12:40.884Z,20.00
2019-02-17T12:15:12.191Z,23.40
2019-02-17T12:17:40.724Z,20.87
2019-02-17T12:20:28.080Z,23.17
2019-02-17T12:22:58.186Z,22.07
2019-02-17T12:25:28.345Z,21.90
2019-02-17T12:27:58.540Z,19.27
2019-02-17T12:30:27.005Z,20.70
2019-02-17T12:32:55.495Z,22.17
2019-02-17T12:35:24.001Z,21.70
2019-02-17T12:37:52.586Z,19.13
2019-02-17T12:40:21.064Z,19.63
2019-02-17T12:42:51.123Z,20.67
2019-02-17T12:45:19.948Z,19.70
2019-02-17T12:47:57.544Z,17.80
2019-02-17T12:50:19.769Z,20.57
2019-02-17T12:52:48.235Z,18.40
2019-02-17T12:55:16.753Z,21.83
2019-02-17T12:57:45.225Z,23.00
2019-02-17T13:00:15.967Z,20.23
2019-02-17T13:02:44.578Z,21.80
2019-02-17T13:05:13.181Z,22.40
2019-02-17T13:07:42.915Z,31.37
2019-02-17T13:10:12.500Z,30.97
2019-02-17T13:12:41.096Z,29.10
2019-02-17T13:15:11.650Z,27.33
2019-02-17T13:17:40.273Z,22.37
2019-02-17T13:20:13.197Z,18.57
2019-02-17T13:22:41.740Z,17.33
2019-02-17T13:25:15.201Z,21.50
2019-02-17T13:27:43.931Z,18.93
2019-02-17T13:30:15.612Z,20.47
2019-02-17T13:32:44.106Z,21.13
2019-02-17T13:35:12.657Z,18.77
2019-02-17T13:37:41.171Z,18.77
2019-02-17T13:40:12.165Z,20.27
2019-02-17T13:42:40.733Z,17.17
2019-02-17T13:45:13.616Z,20.93
2019-02-17T13:47:42.259Z,20.00
2019-02-17T13:50:15.261Z,19.87
2019-02-17T13:52:43.734Z,20.07
2019-02-17T13:55:12.419Z,18.33
2019-02-17T13:57:41.044Z,18.90
2019-02-17T14:00:12.288Z,19.77
2019-02-17T14:02:40.884Z,18.63
2019-02-17T14:05:09.569Z,17.43
2019-02-17T14:07:38.027Z,17.47
2019-02-17T14:10:09.407Z,18.90
2019-02-17T14:12:37.899Z,19.53
2019-02-17T14:15:11.681Z,17.17
2019-02-17T14:17:40.239Z,16.60
2019-02-17T14:20:10.555Z,17.30
2019-02-17T14:22:39.090Z,18.30
2019-02-17T14:25:10.955Z,16.47
2019-02-17T14:27:39.619Z,15.40
2019-02-17T14:30:16.344Z,22.63
2019-02-17T14:32:44.874Z,19.73
2019-02-17T14:35:13.476Z,17.37
2019-02-17T14:37:41.998Z,15.40
2019-02-17T14:40:13.619Z,17.87
2019-02-17T14:42:42.153Z,15.57
2019-02-17T14:45:12.765Z,15.53
2019-02-17T14:47:41.223Z,15.17
2019-02-17T14:50:10.459Z,13.77
2019-02-17T14:52:40.640Z,15.00
2019-02-17T14:55:11.614Z,12.23
2019-02-17T14:57:40.216Z,14.00
2019-02-17T15:00:14.001Z,12.17
2019-02-17T15:02:42.528Z,13.47
2019-02-17T15:05:11.136Z,14.60
2019-02-17T15:07:39.619Z,13.87
2019-02-17T15:10:12.499Z,15.00
2019-02-17T15:12:41.024Z,15.33
2019-02-17T15:15:16.431Z,14.43
2019-02-17T15:17:44.895Z,16.23
2019-02-17T15:20:24.560Z,15.43
2019-02-17T15:22:53.108Z,13.13
2019-02-17T15:25:21.641Z,14.47
2019-02-17T15:27:50.241Z,14.80
2019-02-17T15:30:18.809Z,13.30
2019-02-17T15:32:47.301Z,20.60
2019-02-17T15:35:15.769Z,15.83
2019-02-17T15:37:44.489Z,14.83
2019-02-17T15:40:14.642Z,14.10
2019-02-17T15:42:43.536Z,14.57
2019-02-17T15:45:16.137Z,13.90
2019-02-17T15:47:44.694Z,16.27
2019-02-17T15:50:14.586Z,13.13
2019-02-17T15:52:43.250Z,12.43
2019-02-17T15:55:15.110Z,12.33
2019-02-17T15:57:43.614Z,13.67
2019-02-17T16:00:17.120Z,12.10
2019-02-17T16:02:45.586Z,13.70
2019-02-17T16:05:14.052Z,12.10
2019-02-17T16:07:42.641Z,13.37
2019-02-17T16:10:13.004Z,12.13
2019-02-17T16:12:41.469Z,10.87
2019-02-17T16:15:22.025Z,11.30
2019-02-17T16:17:50.568Z,10.43
2019-02-17T16:20:19.045Z,9.37
2019-02-17T16:22:47.524Z,8.77
2019-02-17T16:25:16.084Z,8.83
2019-02-17T16:27:44.588Z,8.43
2019-02-17T16:30:17.321Z,9.20
2019-02-17T16:32:45.864Z,8.40
2019-02-17T16:35:14.449Z,7.80
2019-02-17T16:37:43.020Z,7.90
2019-02-17T16:40:16.572Z,8.40
2019-02-17T16:42:45.601Z,8.30
2019-02-17T16:45:16.999Z,7.43
2019-02-17T16:47:45.765Z,9.20
2019-02-17T16:50:17.356Z,9.03
2019-02-17T16:52:45.828Z,7.73
2019-02-17T16:55:14.315Z,8.57
2019-02-17T16:57:42.860Z,8.03
2019-02-17T17:00:16.277Z,6.40
2019-02-17T17:02:44.836Z,9.43
2019-02-17T17:05:13.431Z,6.60
2019-02-17T17:07:41.963Z,8.23
2019-02-17T17:10:10.622Z,6.83
2019-02-17T17:12:39.157Z,8.23
2019-02-17T17:15:09.260Z,7.57
2019-02-17T17:17:38.921Z,12.17
2019-02-17T17:20:10.288Z,8.10
2019-02-17T17:22:38.892Z,8.13
2019-02-17T17:25:09.831Z,8.77
2019-02-17T17:27:38.364Z,7.57
2019-02-17T17:30:10.044Z,10.50
2019-02-17T17:32:38.648Z,9.80
2019-02-17T17:35:09.849Z,8.93
2019-02-17T17:37:39.177Z,8.03
2019-02-17T17:40:13.063Z,9.07
2019-02-17T17:42:41.629Z,9.37
2019-02-17T17:45:15.768Z,8.50
2019-02-17T17:47:44.349Z,11.23
2019-02-17T17:50:14.597Z,8.33
2019-02-17T17:52:43.267Z,11.53
2019-02-17T17:55:13.240Z,8.77
2019-02-17T17:57:41.807Z,9.30
2019-02-17T18:00:21.577Z,10.53
2019-02-17T18:02:50.046Z,12.37
2019-02-17T18:05:18.526Z,9.57
2019-02-17T18:07:47.082Z,10.63
2019-02-17T18:10:16.652Z,9.27
2019-02-17T18:12:45.452Z,11.17
2019-02-17T18:15:17.035Z,12.73
2019-02-17T18:17:54.004Z,9.23
2019-02-17T18:20:15.778Z,14.20
2019-02-17T18:22:44.262Z,9.40
2019-02-17T18:25:13.739Z,9.57
2019-02-17T18:27:42.275Z,11.80
2019-02-17T18:30:16.570Z,12.00
2019-02-17T18:32:45.662Z,13.30
2019-02-17T18:35:20.220Z,17.77
2019-02-17T18:37:47.881Z,14.07
2019-02-17T18:40:17.800Z,16.40
2019-02-17T18:42:46.345Z,13.70
2019-02-17T18:45:16.436Z,11.87
2019-02-17T18:47:44.982Z,13.23
2019-02-17T18:50:17.916Z,15.87
2019-02-17T18:52:46.388Z,13.97
2019-02-17T18:55:15.292Z,13.73
2019-02-17T18:57:49.951Z,17.20
2019-02-17T19:00:25.120Z,18.80
2019-02-17T19:02:53.600Z,15.60
2019-02-17T19:05:31.478Z,12.57
2019-02-17T19:07:52.365Z,11.50
2019-02-17T19:10:20.839Z,14.23
2019-02-17T19:12:49.297Z,11.03
2019-02-17T19:15:20.341Z,10.57
2019-02-17T19:17:48.929Z,9.10
2019-02-17T19:20:26.032Z,10.93
2019-02-17T19:22:54.606Z,9.57
2019-02-17T19:25:23.178Z,8.07
2019-02-17T19:27:51.660Z,9.23
2019-02-17T19:30:20.195Z,7.77
2019-02-17T19:32:50.971Z,7.87
2019-02-17T19:35:19.477Z,8.90
2019-02-17T19:37:47.993Z,8.13
2019-02-17T19:40:16.444Z,7.80
2019-02-17T19:42:45.006Z,7.63
2019-02-17T19:45:15.797Z,7.73
2019-02-17T19:47:44.476Z,9.37
2019-02-17T19:50:16.999Z,7.13
2019-02-17T19:52:45.705Z,6.97
2019-02-17T19:55:14.539Z,7.67
2019-02-17T19:57:43.320Z,9.77
2019-02-17T20:00:16.015Z,8.87
2019-02-17T20:02:52.107Z,8.73
2019-02-17T20:05:22.419Z,7.77
2019-02-17T20:07:52.923Z,7.73
2019-02-17T20:10:21.511Z,6.97
2019-02-17T20:12:49.996Z,6.77
2019-02-17T20:15:18.506Z,8.57
2019-02-17T20:17:48.923Z,8.03
2019-02-17T20:20:17.193Z,7.10
2019-02-17T20:22:45.697Z,7.83
2019-02-17T20:25:14.217Z,8.93
2019-02-17T20:27:42.748Z,8.37
2019-02-17T20:30:13.539Z,6.57
2019-02-17T20:32:42.119Z,8.03
2019-02-17T20:35:29.969Z,7.50
2019-02-17T20:37:58.494Z,6.90
2019-02-17T20:40:26.956Z,8.00
2019-02-17T20:42:55.441Z,7.20
2019-02-17T20:45:23.982Z,6.80
2019-02-17T20:47:52.770Z,7.87
2019-02-17T20:50:21.308Z,7.57
2019-02-17T20:52:49.958Z,8.00
2019-02-17T20:55:18.438Z,8.83
2019-02-17T20:57:49.577Z,8.47
2019-02-17T21:00:22.759Z,6.77
2019-02-17T21:02:51.380Z,7.87
2019-02-17T21:05:21.444Z,7.73
2019-02-17T21:07:49.933Z,10.63
2019-02-17T21:10:18.446Z,8.23
2019-02-17T21:12:46.979Z,6.90
2019-02-17T21:15:18.479Z,8.27
2019-02-17T21:17:47.035Z,8.33
2019-02-17T21:20:16.716Z,6.93
2019-02-17T21:22:45.516Z,7.40
2019-02-17T21:25:15.049Z,6.70
2019-02-17T21:27:43.519Z,6.43
2019-02-17T21:30:17.734Z,6.63
2019-02-17T21:32:47.108Z,8.33
2019-02-17T21:35:16.799Z,7.43
2019-02-17T21:37:45.295Z,7.80
2019-02-17T21:40:14.329Z,7.47
2019-02-17T21:42:42.986Z,7.13
2019-02-17T21:45:15.769Z,7.23
2019-02-17T21:47:44.297Z,7.40
2019-02-17T21:50:16.129Z,8.33
2019-02-17T21:52:44.664Z,6.97
2019-02-17T21:55:15.669Z,8.30
2019-02-17T21:57:44.116Z,8.37
2019-02-17T22:00:20.039Z,7.60
2019-02-17T22:02:48.767Z,8.03
2019-02-17T22:05:17.356Z,7.33
2019-02-17T22:07:45.907Z,8.13
2019-02-17T22:10:19.734Z,8.20
2019-02-17T22:12:50.903Z,6.70
2019-02-17T22:15:19.943Z,6.80
2019-02-17T22:17:48.568Z,6.93
2019-02-17T22:20:18.786Z,7.17
2019-02-17T22:22:47.286Z,7.27
2019-02-17T22:25:16.157Z,9.03
2019-02-17T22:27:44.681Z,8.13
2019-02-17T22:30:14.348Z,8.57
2019-02-17T22:32:42.968Z,6.37
2019-02-17T22:35:11.803Z,7.37
2019-02-17T22:37:40.335Z,7.37
2019-02-17T22:40:15.576Z,7.87
2019-02-17T22:42:44.089Z,9.57
2019-02-17T22:45:13.116Z,9.47
2019-02-17T22:47:41.575Z,7.80
2019-02-17T22:50:12.366Z,8.40
2019-02-17T22:52:40.943Z,7.70
2019-02-17T22:55:11.481Z,8.43
2019-02-17T22:57:40.005Z,8.50
2019-02-17T23:00:17.588Z,8.53
2019-02-17T23:02:46.136Z,7.67
2019-02-17T23:05:14.700Z,6.63
2019-02-17T23:07:43.168Z,7.40
2019-02-17T23:10:12.441Z,8.83
2019-02-17T23:12:41.130Z,6.33
2019-02-17T23:15:09.726Z,8.13
2019-02-17T23:17:38.264Z,10.10
2019-02-17T23:20:07.908Z,9.03
2019-02-17T23:22:36.464Z,10.10
2019-02-17T23:25:07.676Z,9.13
2019-02-17T23:27:36.160Z,8.93
2019-02-17T23:30:07.182Z,7.33
2019-02-17T23:32:35.708Z,8.27
2019-02-17T23:35:04.876Z,11.87
2019-02-17T23:37:33.431Z,7.83
2019-02-17T23:40:03.434Z,7.73
2019-02-17T23:42:31.972Z,7.77
2019-02-17T23:45:00.472Z,9.97
2019-02-17T23:47:28.962Z,6.93
2019-02-17T23:49:57.494Z,9.50
2019-02-17T23:52:25.996Z,7.20
2019-02-17T23:54:54.508Z,9.63
2019-02-17T23:57:22.964Z,7.10
2019-02-17T23:59:51.452Z,7.73
